Time;durP1;ratioP1;P1;durP2;ratioP2;P2;SDS_P1;SDS_P2;PMS_P1;PMS_P2;Temp;Humidity;BMP_temperature;BMP_pressure;BME280_temperature;BME280_humidity;BME280_pressure;Samples;Min_cycle;Max_cycle;Signal;HPM_P1;HPM_P2
2022/06/20 00:00:58;;;;;;;;;;;13.90;99.90;;;;;;5110647;28;20371;-83
2022/06/20 00:03:25;;;;;;;;;;;13.90;99.90;;;;;;5076443;28;19924;-84
2022/06/20 00:05:51;;;;;;;;;;;13.90;99.90;;;;;;5060606;28;20040;-84
2022/06/20 00:08:16;;;;;;;;;;;13.90;99.90;;;;;;5061268;28;20007;-84
2022/06/20 00:10:43;;;;;;;;;;;13.80;99.90;;;;;;5110940;28;19924;-84
2022/06/20 00:13:31;;;;;;;;;;;13.80;99.90;;;;;;5076529;28;19990;-84
2022/06/20 00:15:57;;;;;;;;;;;13.80;99.90;;;;;;5059737;28;20007;-84
2022/06/20 00:18:23;;;;;;;;;;;13.80;99.90;;;;;;5080111;28;20279;-83
2022/06/20 00:20:49;;;;;;;;;;;13.80;99.90;;;;;;5042860;28;19931;-84
2022/06/20 00:23:14;;;;;;;;;;;13.70;99.90;;;;;;5090121;28;19928;-84
2022/06/20 00:25:40;;;;;;;;;;;13.70;99.90;;;;;;5060359;28;20024;-84
2022/06/20 00:28:06;;;;;;;;;;;13.70;99.90;;;;;;5074399;28;20371;-84
2022/06/20 00:30:32;;;;;;;;;;;13.70;99.90;;;;;;5103765;28;19924;-84
2022/06/20 00:32:58;;;;;;;;;;;13.70;99.90;;;;;;5093321;28;20272;-84
2022/06/20 00:35:23;;;;;;;;;;;13.70;99.90;;;;;;5075985;28;20338;-83
2022/06/20 00:37:49;;;;;;;;;;;13.80;99.90;;;;;;5076152;28;19950;-84
2022/06/20 00:40:34;;;;;;;;;;;13.70;99.90;;;;;;5092073;28;19931;-84
2022/06/20 00:42:59;;;;;;;;;;;13.70;99.90;;;;;;5076308;28;19935;-84
2022/06/20 00:45:27;;;;;;;;;;;13.80;99.90;;;;;;5059880;28;19924;-84
2022/06/20 00:47:56;;;;;;;;;;;13.70;99.90;;;;;;5093436;28;19924;-84
2022/06/20 00:50:24;;;;;;;;;;;13.70;99.90;;;;;;5084976;28;20306;-84
2022/06/20 00:52:52;;;;;;;;;;;13.70;99.90;;;;;;5096123;28;19923;-83
2022/06/20 00:55:26;;;;;;;;;;;13.70;99.90;;;;;;5096699;28;19934;-84
2022/06/20 00:58:00;;;;;;;;;;;13.60;99.90;;;;;;5079827;28;19924;-84
2022/06/20 01:00:31;;;;;;;;;;;13.60;99.90;;;;;;5091773;28;19924;-84
2022/06/20 01:03:01;;;;;;;;;;;13.60;99.90;;;;;;5059979;28;19924;-84
2022/06/20 01:05:33;;;;;;;;;;;13.50;99.90;;;;;;5060134;28;19975;-83
2022/06/20 01:08:08;;;;;;;;;;;13.50;99.90;;;;;;5059360;28;20299;-84
2022/06/20 01:10:42;;;;;;;;;;;13.50;99.90;;;;;;5076933;28;19924;-84
2022/06/20 01:13:12;;;;;;;;;;;13.40;99.90;;;;;;5075606;28;20420;-84
2022/06/20 01:15:40;;;;;;;;;;;13.40;99.90;;;;;;5075572;28;20072;-83
2022/06/20 01:18:10;;;;;;;;;;;13.40;99.90;;;;;;5059839;28;20065;-84
2022/06/20 01:20:37;;;;;;;;;;;13.40;99.90;;;;;;5093409;28;19925;-83
2022/06/20 01:23:04;;;;;;;;;;;13.30;99.90;;;;;;5091255;28;19997;-84
2022/06/20 01:25:42;;;;;;;;;;;13.30;99.90;;;;;;5092940;28;19931;-84
2022/06/20 01:28:09;;;;;;;;;;;13.30;99.90;;;;;;5110713;28;19924;-83
2022/06/20 01:30:37;;;;;;;;;;;13.30;99.90;;;;;;5076050;28;20015;-83
2022/06/20 01:33:03;;;;;;;;;;;13.30;99.90;;;;;;5081137;28;19924;-84
2022/06/20 01:38:15;;;;;;;;;;;13.30;99.90;;;;;;5109572;28;20399;-84
2022/06/20 01:42:18;;;;;;;;;;;13.30;99.90;;;;;;5059294;28;19924;-84
2022/06/20 01:43:31;;;;;;;;;;;13.30;99.90;;;;;;5082568;28;19924;-84
2022/06/20 01:45:57;;;;;;;;;;;13.20;99.90;;;;;;5109562;28;19924;-84
2022/06/20 01:48:23;;;;;;;;;;;13.20;99.90;;;;;;5109980;28;19993;-84
2022/06/20 01:50:49;;;;;;;;;;;13.10;99.90;;;;;;5075708;28;19928;-84
2022/06/20 01:53:15;;;;;;;;;;;13.10;99.90;;;;;;5091171;28;19924;-84
2022/06/20 01:55:46;;;;;;;;;;;13.10;99.90;;;;;;5076264;28;19971;-84
2022/06/20 01:58:14;;;;;;;;;;;13.00;99.90;;;;;;5057981;28;19947;-85
2022/06/20 02:00:40;;;;;;;;;;;13.00;99.90;;;;;;5092357;28;19924;-84
2022/06/20 02:03:09;;;;;;;;;;;13.00;99.90;;;;;;5091620;28;20419;-84
2022/06/20 02:05:35;;;;;;;;;;;13.00;99.90;;;;;;5108548;28;19924;-85
2022/06/20 02:08:02;;;;;;;;;;;13.10;99.90;;;;;;5075693;28;19924;-84
2022/06/20 02:10:34;;;;;;;;;;;13.10;99.90;;;;;;5075939;28;19947;-84
2022/06/20 02:13:01;;;;;;;;;;;13.20;99.90;;;;;;5092328;28;20459;-84
2022/06/20 02:15:30;;;;;;;;;;;13.20;99.90;;;;;;5074399;28;20291;-84
2022/06/20 02:17:55;;;;;;;;;;;13.20;99.90;;;;;;5092554;28;19969;-84
2022/06/20 02:20:22;;;;;;;;;;;13.20;99.90;;;;;;5075467;28;20014;-85
2022/06/20 02:22:49;;;;;;;;;;;13.20;99.90;;;;;;5092248;28;20014;-84
2022/06/20 02:25:17;;;;;;;;;;;13.20;99.90;;;;;;5082688;28;19924;-84
2022/06/20 02:27:45;;;;;;;;;;;13.20;99.90;;;;;;5058498;28;19924;-84
2022/06/20 02:30:11;;;;;;;;;;;13.20;99.90;;;;;;5092467;28;19931;-83
2022/06/20 02:32:40;;;;;;;;;;;13.10;99.90;;;;;;5092050;28;19924;-84
2022/06/20 02:35:07;;;;;;;;;;;13.10;99.90;;;;;;5068808;28;19924;-84
2022/06/20 02:37:34;;;;;;;;;;;13.00;99.90;;;;;;5091994;28;20040;-84
2022/06/20 02:40:03;;;;;;;;;;;12.90;99.90;;;;;;5075118;28;19959;-84
2022/06/20 02:42:32;;;;;;;;;;;12.90;99.90;;;;;;5075170;28;19924;-84
2022/06/20 02:44:58;;;;;;;;;;;13.00;99.90;;;;;;5107373;28;19989;-84
2022/06/20 02:47:24;;;;;;;;;;;13.00;99.90;;;;;;5057900;28;20360;-84
2022/06/20 02:49:51;;;;;;;;;;;13.00;99.90;;;;;;5058753;28;19931;-84
2022/06/20 02:52:21;;;;;;;;;;;13.00;99.90;;;;;;5074749;28;20015;-84
2022/06/20 02:54:47;;;;;;;;;;;13.00;99.90;;;;;;5093283;28;20282;-84
2022/06/20 02:57:15;;;;;;;;;;;13.00;99.90;;;;;;5065346;28;19954;-85
2022/06/20 02:59:44;;;;;;;;;;;13.00;99.90;;;;;;5091677;28;19924;-84
2022/06/20 03:02:11;;;;;;;;;;;12.90;99.90;;;;;;5075055;28;19924;-85
2022/06/20 03:04:39;;;;;;;;;;;12.90;99.90;;;;;;5092184;28;19969;-84
2022/06/20 03:07:09;;;;;;;;;;;12.90;99.90;;;;;;5081840;28;19970;-84
2022/06/20 03:09:37;;;;;;;;;;;12.90;99.90;;;;;;5071557;28;20284;-85
2022/06/20 03:12:04;;;;;;;;;;;12.90;99.90;;;;;;5040079;28;19925;-85
2022/06/20 03:14:44;;;;;;;;;;;12.80;99.90;;;;;;5040592;28;19924;-84
2022/06/20 03:17:12;;;;;;;;;;;12.80;99.90;;;;;;5080829;28;19924;-85
2022/06/20 03:19:40;;;;;;;;;;;12.80;99.90;;;;;;5095370;28;19928;-84
2022/06/20 03:22:07;;;;;;;;;;;12.80;99.90;;;;;;5095472;28;19977;-84
2022/06/20 03:24:34;;;;;;;;;;;12.70;99.90;;;;;;5078797;28;19924;-84
2022/06/20 03:27:00;;;;;;;;;;;12.70;99.90;;;;;;5062063;28;20394;-85
2022/06/20 03:29:26;;;;;;;;;;;12.70;99.90;;;;;;5111688;28;19924;-84
2022/06/20 03:31:53;;;;;;;;;;;12.80;99.90;;;;;;5078749;28;19932;-84
2022/06/20 03:34:18;;;;;;;;;;;12.70;99.90;;;;;;5077567;28;19935;-85
2022/06/20 03:36:47;;;;;;;;;;;12.80;99.90;;;;;;5063370;28;20276;-84
2022/06/20 03:39:12;;;;;;;;;;;12.80;99.90;;;;;;5067593;28;19930;-84
2022/06/20 03:41:39;;;;;;;;;;;12.80;99.90;;;;;;5061928;28;19927;-84
2022/06/20 03:44:17;;;;;;;;;;;12.80;99.90;;;;;;5111924;28;19924;-84
2022/06/20 03:46:49;;;;;;;;;;;12.80;99.90;;;;;;5077713;28;20022;-84
2022/06/20 03:49:22;;;;;;;;;;;12.80;99.90;;;;;;5078625;28;19950;-84
2022/06/20 03:51:51;;;;;;;;;;;12.80;99.90;;;;;;5060594;28;20402;-84
2022/06/20 03:54:21;;;;;;;;;;;12.80;99.90;;;;;;5077187;28;20376;-84
2022/06/20 03:57:00;;;;;;;;;;;12.80;99.90;;;;;;5060660;28;20503;-84
2022/06/20 03:59:30;;;;;;;;;;;12.80;99.90;;;;;;5095999;28;19931;-84
2022/06/20 04:02:15;;;;;;;;;;;12.80;99.90;;;;;;5048151;28;20371;-84
2022/06/20 04:04:50;;;;;;;;;;;12.90;99.90;;;;;;5077376;28;19924;-83
2022/06/20 04:07:19;;;;;;;;;;;12.90;99.90;;;;;;5077389;28;19957;-84
2022/06/20 04:12:51;;;;;;;;;;;13.20;99.90;;;;;;5110597;28;20341;-84
2022/06/20 04:15:22;;;;;;;;;;;13.50;99.90;;;;;;5077551;28;19983;-84
2022/06/20 04:20:49;;;;;;;;;;;13.80;99.90;;;;;;5100153;28;19971;-84
2022/06/20 04:23:17;;;;;;;;;;;13.90;99.90;;;;;;5060769;28;19946;-84
2022/06/20 04:25:52;;;;;;;;;;;13.80;99.90;;;;;;5077314;28;20364;-83
2022/06/20 04:28:17;;;;;;;;;;;13.70;99.90;;;;;;5093823;28;19946;-84
2022/06/20 04:30:45;;;;;;;;;;;13.70;99.90;;;;;;5077545;28;19924;-84
2022/06/20 04:33:15;;;;;;;;;;;13.70;99.90;;;;;;5071504;28;19924;-83
2022/06/20 04:35:45;;;;;;;;;;;13.60;99.90;;;;;;5079939;28;19954;-84
2022/06/20 04:38:22;;;;;;;;;;;13.60;99.90;;;;;;5040519;28;20283;-84
2022/06/20 04:41:00;;;;;;;;;;;13.60;99.90;;;;;;5057469;28;19954;-83
2022/06/20 04:43:31;;;;;;;;;;;13.60;99.90;;;;;;5062947;28;19931;-83
2022/06/20 04:46:13;;;;;;;;;;;13.60;99.90;;;;;;5093868;28;20368;-84
2022/06/20 04:48:39;;;;;;;;;;;13.60;99.90;;;;;;5076510;28;20287;-84
2022/06/20 04:51:07;;;;;;;;;;;13.70;99.90;;;;;;5077177;28;19924;-84
2022/06/20 04:53:35;;;;;;;;;;;13.70;99.90;;;;;;5087709;28;19971;-84
2022/06/20 04:56:03;;;;;;;;;;;13.80;99.90;;;;;;5093637;28;20380;-84
2022/06/20 04:58:42;;;;;;;;;;;13.80;99.90;;;;;;5093303;28;20386;-83
2022/06/20 05:01:08;;;;;;;;;;;13.90;99.90;;;;;;5076980;28;20058;-83
2022/06/20 05:03:37;;;;;;;;;;;13.90;99.90;;;;;;5076362;28;20126;-83
2022/06/20 05:06:05;;;;;;;;;;;14.00;99.90;;;;;;5077197;28;19924;-83
2022/06/20 05:08:32;;;;;;;;;;;14.10;99.90;;;;;;5076455;28;19931;-84
2022/06/20 05:11:01;;;;;;;;;;;14.20;99.90;;;;;;5059865;28;20343;-84
2022/06/20 05:13:53;;;;;;;;;;;14.30;99.90;;;;;;5062577;28;19959;-84
2022/06/20 05:16:27;;;;;;;;;;;14.30;99.90;;;;;;5062368;28;20371;-84
2022/06/20 05:18:55;;;;;;;;;;;14.30;99.90;;;;;;5110100;28;19931;-84
2022/06/20 05:21:24;;;;;;;;;;;14.40;99.90;;;;;;5076466;28;19924;-84
2022/06/20 05:23:52;;;;;;;;;;;14.50;99.90;;;;;;5090931;28;19983;-83
2022/06/20 05:26:29;;;;;;;;;;;14.50;99.90;;;;;;5109818;28;19928;-84
2022/06/20 05:28:56;;;;;;;;;;;14.60;99.90;;;;;;5076234;28;19994;-84
2022/06/20 05:31:52;;;;;;;;;;;14.70;99.90;;;;;;5059507;28;19963;-84
2022/06/20 05:34:29;;;;;;;;;;;14.70;99.90;;;;;;5058676;28;19967;-84
2022/06/20 05:37:06;;;;;;;;;;;14.90;99.90;;;;;;5092359;28;20383;-84
2022/06/20 05:39:34;;;;;;;;;;;14.90;99.90;;;;;;5109174;28;19924;-84
2022/06/20 05:42:00;;;;;;;;;;;15.00;99.90;;;;;;5059048;28;19953;-84
2022/06/20 05:44:26;;;;;;;;;;;15.10;99.90;;;;;;5072770;28;19929;-82
2022/06/20 05:46:59;;;;;;;;;;;15.20;99.90;;;;;;5059387;28;20394;-88
2022/06/20 05:49:28;;;;;;;;;;;15.30;99.90;;;;;;5078993;28;19986;-83
2022/06/20 05:51:55;;;;;;;;;;;15.30;99.90;;;;;;5096541;28;19924;-87
2022/06/20 05:54:26;;;;;;;;;;;15.40;99.90;;;;;;5077073;28;19931;-83
2022/06/20 05:56:57;;;;;;;;;;;15.50;99.90;;;;;;5094991;28;19999;-84
2022/06/20 05:59:25;;;;;;;;;;;15.40;99.90;;;;;;5091091;28;20295;-83
2022/06/20 06:01:52;;;;;;;;;;;15.30;99.90;;;;;;5072101;28;19931;-83
2022/06/20 06:04:25;;;;;;;;;;;15.10;99.90;;;;;;5076135;28;19924;-83
2022/06/20 06:06:57;;;;;;;;;;;15.10;99.90;;;;;;5059175;28;19924;-83
2022/06/20 06:09:41;;;;;;;;;;;15.10;99.90;;;;;;5108647;28;19967;-82
2022/06/20 06:12:13;;;;;;;;;;;15.00;99.90;;;;;;5075570;28;20064;-82
2022/06/20 06:15:02;;;;;;;;;;;15.10;99.90;;;;;;5059206;28;19928;-82
2022/06/20 06:17:37;;;;;;;;;;;15.10;99.90;;;;;;5049777;28;19928;-82
2022/06/20 06:20:04;;;;;;;;;;;15.20;99.90;;;;;;5055221;28;19950;-83
2022/06/20 06:22:34;;;;;;;;;;;15.00;99.90;;;;;;5092136;28;19947;-82
2022/06/20 06:25:27;;;;;;;;;;;15.00;99.90;;;;;;5058368;28;19924;-82
2022/06/20 06:28:13;;;;;;;;;;;15.00;99.90;;;;;;5055478;28;19974;-83
2022/06/20 06:30:45;;;;;;;;;;;15.00;99.90;;;;;;5095538;28;19924;-83
2022/06/20 06:33:27;;;;;;;;;;;15.10;99.90;;;;;;5081589;28;20287;-84
2022/06/20 06:36:03;;;;;;;;;;;15.10;99.90;;;;;;5058757;28;19924;-84
2022/06/20 06:38:33;;;;;;;;;;;15.10;99.90;;;;;;5075259;28;19934;-82
2022/06/20 06:41:01;;;;;;;;;;;15.10;99.90;;;;;;5088460;28;19985;-80
2022/06/20 06:43:32;;;;;;;;;;;15.10;99.90;;;;;;5108738;28;19931;-81
2022/06/20 06:46:01;;;;;;;;;;;15.20;99.90;;;;;;5060539;28;19928;-79
2022/06/20 06:48:26;;;;;;;;;;;15.20;99.90;;;;;;5074783;28;20015;-79
2022/06/20 06:51:18;;;;;;;;;;;15.20;99.90;;;;;;5068027;28;19982;-78
2022/06/20 06:53:46;;;;;;;;;;;15.20;99.90;;;;;;5056248;28;19924;-82
2022/06/20 06:56:18;;;;;;;;;;;15.20;99.90;;;;;;5086722;28;20229;-80
2022/06/20 06:58:46;;;;;;;;;;;15.20;99.90;;;;;;5083683;28;20448;-80
2022/06/20 07:01:14;;;;;;;;;;;15.30;99.90;;;;;;5079241;28;20280;-81
2022/06/20 07:03:43;;;;;;;;;;;15.30;99.90;;;;;;5078531;28;20343;-82
2022/06/20 07:06:13;;;;;;;;;;;15.40;99.90;;;;;;5096218;28;19924;-77
2022/06/20 07:08:45;;;;;;;;;;;15.40;99.90;;;;;;5095900;28;19970;-83
2022/06/20 07:11:21;;;;;;;;;;;15.50;99.90;;;;;;5095479;28;20409;-82
2022/06/20 07:13:55;;;;;;;;;;;15.60;99.90;;;;;;5112298;28;19977;-83
2022/06/20 07:16:23;;;;;;;;;;;15.60;99.90;;;;;;5095886;28;19924;-81
2022/06/20 07:18:51;;;;;;;;;;;15.70;99.90;;;;;;5061701;28;20018;-82
2022/06/20 07:21:18;;;;;;;;;;;15.70;99.90;;;;;;5078863;28;19971;-86
2022/06/20 07:23:52;;;;;;;;;;;15.70;99.90;;;;;;5078223;28;20018;-83
2022/06/20 07:26:21;;;;;;;;;;;15.80;99.90;;;;;;5077950;28;19924;-82
2022/06/20 07:28:57;;;;;;;;;;;16.00;99.90;;;;;;5060601;28;19933;-82
2022/06/20 07:31:22;;;;;;;;;;;16.10;99.90;;;;;;5078185;28;19931;-82
2022/06/20 07:33:54;;;;;;;;;;;16.30;99.90;;;;;;5061407;28;19939;-83
2022/06/20 07:36:25;;;;;;;;;;;16.20;99.90;;;;;;5095079;28;19970;-82
2022/06/20 07:39:11;;;;;;;;;;;16.00;99.90;;;;;;5094658;28;19927;-82
2022/06/20 07:41:49;;;;;;;;;;;15.80;99.90;;;;;;5095246;28;19924;-82
2022/06/20 07:44:23;;;;;;;;;;;15.70;99.90;;;;;;5095200;28;20010;-81
2022/06/20 07:46:53;;;;;;;;;;;15.80;99.90;;;;;;5060935;28;19924;-82
2022/06/20 07:49:45;;;;;;;;;;;15.90;99.90;;;;;;5070623;28;20402;-83
2022/06/20 07:52:13;;;;;;;;;;;16.00;99.90;;;;;;5058532;28;19924;-82
2022/06/20 07:54:43;;;;;;;;;;;16.10;99.90;;;;;;5111330;28;19927;-82
2022/06/20 07:57:25;;;;;;;;;;;16.10;99.90;;;;;;5077518;28;19985;-83
2022/06/20 08:00:01;;;;;;;;;;;16.10;99.90;;;;;;5068729;28;20264;-82
2022/06/20 08:02:30;;;;;;;;;;;16.00;99.90;;;;;;5111225;28;19924;-82
2022/06/20 08:04:56;;;;;;;;;;;16.20;99.90;;;;;;5077438;28;20285;-82
2022/06/20 08:07:24;;;;;;;;;;;16.10;99.90;;;;;;5078183;28;20011;-83
2022/06/20 08:09:53;;;;;;;;;;;16.10;99.90;;;;;;5094170;28;20291;-82
2022/06/20 08:12:22;;;;;;;;;;;16.00;99.90;;;;;;5077738;28;19939;-85
2022/06/20 08:14:48;;;;;;;;;;;16.00;99.90;;;;;;5090458;28;19935;-84
2022/06/20 08:17:14;;;;;;;;;;;16.00;99.90;;;;;;5074304;28;19925;-82
2022/06/20 08:19:41;;;;;;;;;;;16.00;99.90;;;;;;5108119;28;19924;-83
2022/06/20 08:22:06;;;;;;;;;;;16.00;99.90;;;;;;5074166;28;20015;-81
2022/06/20 08:24:34;;;;;;;;;;;15.80;99.90;;;;;;5073162;28;20081;-79
2022/06/20 08:27:04;;;;;;;;;;;15.70;99.90;;;;;;5056634;28;19931;-80
2022/06/20 08:29:33;;;;;;;;;;;15.90;99.90;;;;;;5074167;28;19928;-81
2022/06/20 08:32:04;;;;;;;;;;;16.00;99.90;;;;;;5056105;28;19928;-81
2022/06/20 08:34:36;;;;;;;;;;;16.10;99.90;;;;;;5084335;28;19924;-79
2022/06/20 08:37:22;;;;;;;;;;;16.30;99.90;;;;;;5073830;28;20003;-81
2022/06/20 08:40:06;;;;;;;;;;;16.50;99.90;;;;;;5037550;28;19940;-82
2022/06/20 08:42:32;;;;;;;;;;;16.70;99.90;;;;;;5047221;28;20015;-81
2022/06/20 08:45:03;;;;;;;;;;;16.60;99.90;;;;;;5053722;28;19975;-80
2022/06/20 08:47:44;;;;;;;;;;;16.80;99.90;;;;;;5069945;28;19925;-82
2022/06/20 08:50:20;;;;;;;;;;;16.90;99.90;;;;;;5070158;28;20495;-80
2022/06/20 08:53:04;;;;;;;;;;;16.60;99.90;;;;;;5056640;28;19931;-80
2022/06/20 08:55:33;;;;;;;;;;;16.30;99.90;;;;;;5073714;28;20344;-80
2022/06/20 08:58:12;;;;;;;;;;;16.10;99.90;;;;;;5073625;28;19929;-80
2022/06/20 09:00:56;;;;;;;;;;;16.10;99.90;;;;;;5073401;28;20455;-81
2022/06/20 09:03:47;;;;;;;;;;;16.20;99.90;;;;;;5056190;28;19932;-81
2022/06/20 09:06:33;;;;;;;;;;;16.40;99.90;;;;;;5073760;28;19975;-82
2022/06/20 09:09:05;;;;;;;;;;;16.50;99.90;;;;;;5072012;28;19928;-82
2022/06/20 09:11:33;;;;;;;;;;;16.60;99.90;;;;;;5073495;28;20363;-81
2022/06/20 09:14:22;;;;;;;;;;;16.80;99.90;;;;;;5072024;28;19994;-84
2022/06/20 09:16:57;;;;;;;;;;;16.90;99.90;;;;;;5109719;28;19962;-84
2022/06/20 09:19:38;;;;;;;;;;;17.00;99.90;;;;;;5093744;28;19924;-84
2022/06/20 09:22:12;;;;;;;;;;;17.30;99.90;;;;;;5092967;28;19923;-83
2022/06/20 09:24:37;;;;;;;;;;;17.20;99.90;;;;;;5110446;28;19949;-80
2022/06/20 09:27:12;;;;;;;;;;;17.20;99.90;;;;;;5093005;28;20340;-83
2022/06/20 09:29:47;;;;;;;;;;;17.40;99.90;;;;;;5089488;28;20061;-80
2022/06/20 09:32:18;;;;;;;;;;;17.60;99.90;;;;;;5089843;28;19932;-81
2022/06/20 09:34:50;;;;;;;;;;;17.40;99.90;;;;;;5089430;28;19931;-85
2022/06/20 09:37:31;;;;;;;;;;;17.50;99.90;;;;;;5068074;28;20493;-82
2022/06/20 09:40:17;;;;;;;;;;;17.50;99.90;;;;;;5075281;28;20439;-80
2022/06/20 09:42:48;;;;;;;;;;;17.60;99.90;;;;;;5074690;28;19928;-80
2022/06/20 09:45:22;;;;;;;;;;;17.60;99.90;;;;;;5075951;28;20240;-82
2022/06/20 09:47:57;;;;;;;;;;;17.80;99.90;;;;;;5092844;28;20022;-82
2022/06/20 09:50:28;;;;;;;;;;;17.80;99.90;;;;;;5092616;28;19924;-81
2022/06/20 09:53:05;;;;;;;;;;;17.90;99.90;;;;;;5074614;28;20286;-82
2022/06/20 09:55:50;;;;;;;;;;;17.80;99.90;;;;;;5092597;28;19924;-81
2022/06/20 09:58:27;;;;;;;;;;;17.60;99.90;;;;;;5059269;28;19920;-81
2022/06/20 10:01:11;;;;;;;;;;;17.70;99.90;;;;;;5058529;28;19924;-80
2022/06/20 10:03:41;;;;;;;;;;;17.60;99.90;;;;;;5075020;28;20151;-79
2022/06/20 10:06:11;;;;;;;;;;;17.60;99.90;;;;;;5109177;28;20403;-78
2022/06/20 10:08:43;;;;;;;;;;;17.60;99.90;;;;;;5074760;28;20315;-78
2022/06/20 10:11:22;;;;;;;;;;;17.30;99.90;;;;;;5075264;28;20401;-79
2022/06/20 10:14:00;;;;;;;;;;;17.20;99.90;;;;;;5091438;28;19943;-82
2022/06/20 10:16:32;;;;;;;;;;;17.50;99.90;;;;;;5073818;28;19950;-78
2022/06/20 10:19:07;;;;;;;;;;;17.40;99.90;;;;;;5058080;28;19928;-78
2022/06/20 10:22:02;;;;;;;;;;;17.40;99.90;;;;;;5108964;28;19924;-79
2022/06/20 10:24:34;;;;;;;;;;;17.50;99.90;;;;;;5045696;28;20037;-79
2022/06/20 10:27:08;;;;;;;;;;;17.90;99.90;;;;;;5092029;28;19924;-78
2022/06/20 10:29:47;;;;;;;;;;;17.90;99.90;;;;;;5074964;28;19928;-77
2022/06/20 10:32:23;;;;;;;;;;;17.90;99.90;;;;;;5092066;28;19927;-79
2022/06/20 10:35:08;;;;;;;;;;;17.60;99.90;;;;;;5109108;28;19928;-78
2022/06/20 10:37:42;;;;;;;;;;;17.80;99.90;;;;;;5068952;28;19931;-78
2022/06/20 10:40:25;;;;;;;;;;;17.80;99.90;;;;;;5085074;28;19934;-77
2022/06/20 10:43:14;;;;;;;;;;;17.80;99.90;;;;;;5064068;28;19975;-82
2022/06/20 10:45:48;;;;;;;;;;;17.50;99.90;;;;;;5051499;28;19931;-78
2022/06/20 10:48:14;;;;;;;;;;;17.20;99.90;;;;;;5092090;28;20425;-79
2022/06/20 10:50:42;;;;;;;;;;;16.90;99.90;;;;;;5075109;28;19928;-78
2022/06/20 10:53:28;;;;;;;;;;;16.70;99.90;;;;;;5075154;28;19935;-79
2022/06/20 10:56:03;;;;;;;;;;;16.90;99.90;;;;;;5060693;28;20015;-79
2022/06/20 10:58:49;;;;;;;;;;;17.20;99.90;;;;;;5109229;28;19935;-78
2022/06/20 11:01:23;;;;;;;;;;;17.50;99.90;;;;;;5091850;28;19924;-80
2022/06/20 11:04:04;;;;;;;;;;;17.90;99.90;;;;;;5075434;28;19979;-78
2022/06/20 11:06:33;;;;;;;;;;;18.30;99.90;;;;;;5092251;28;20016;-79
2022/06/20 11:08:58;;;;;;;;;;;18.50;99.90;;;;;;5092099;28;20422;-80
2022/06/20 11:11:45;;;;;;;;;;;18.70;99.90;;;;;;5074997;28;19928;-79
2022/06/20 11:14:33;;;;;;;;;;;18.80;99.90;;;;;;5044846;28;19925;-80
2022/06/20 11:17:09;;;;;;;;;;;18.90;99.90;;;;;;5087924;28;19924;-78
2022/06/20 11:19:38;;;;;;;;;;;18.90;99.90;;;;;;5074625;28;19969;-77
2022/06/20 11:22:07;;;;;;;;;;;18.80;99.90;;;;;;5057441;28;19975;-78
2022/06/20 11:24:37;;;;;;;;;;;18.80;99.90;;;;;;5091627;28;19974;-77
2022/06/20 11:27:14;;;;;;;;;;;18.70;99.90;;;;;;5074419;28;20006;-80
2022/06/20 11:29:58;;;;;;;;;;;18.60;99.90;;;;;;5071823;28;19924;-77
2022/06/20 11:32:30;;;;;;;;;;;18.30;99.90;;;;;;5056777;28;20379;-79
2022/06/20 11:35:04;;;;;;;;;;;18.60;99.90;;;;;;5094235;28;20022;-82
2022/06/20 11:37:45;;;;;;;;;;;19.00;99.90;;;;;;5095129;28;19930;-79
2022/06/20 11:40:14;;;;;;;;;;;19.40;99.90;;;;;;5078345;28;19924;-79
2022/06/20 11:42:39;;;;;;;;;;;18.70;99.90;;;;;;5077704;28;20109;-79
2022/06/20 11:45:05;;;;;;;;;;;18.70;99.90;;;;;;5078202;28;19975;-78
2022/06/20 11:47:48;;;;;;;;;;;19.10;99.90;;;;;;5095400;28;19928;-80
2022/06/20 11:50:33;;;;;;;;;;;19.50;99.90;;;;;;5078323;28;19928;-80
2022/06/20 11:53:16;;;;;;;;;;;19.30;99.90;;;;;;5063065;28;19951;-79
2022/06/20 11:55:46;;;;;;;;;;;19.60;99.90;;;;;;5061268;28;19946;-79
2022/06/20 11:58:11;;;;;;;;;;;19.70;99.90;;;;;;5077889;28;19924;-79
2022/06/20 12:00:43;;;;;;;;;;;19.80;99.90;;;;;;5094851;28;19924;-80
2022/06/20 12:03:26;;;;;;;;;;;19.90;99.90;;;;;;5061171;28;19928;-80
2022/06/20 12:05:51;;;;;;;;;;;19.90;99.90;;;;;;5094442;28;19993;-81
2022/06/20 12:08:34;;;;;;;;;;;19.70;99.90;;;;;;5094808;28;19946;-80
2022/06/20 12:11:22;;;;;;;;;;;19.90;99.90;;;;;;5061007;28;19928;-84
2022/06/20 12:13:51;;;;;;;;;;;20.20;99.90;;;;;;5075478;28;19924;-79
2022/06/20 12:16:38;;;;;;;;;;;20.10;99.90;;;;;;5077249;28;20428;-79
2022/06/20 12:24:38;;;;;;;;;;;20.40;99.90;;;;;;5111643;28;20066;-80
2022/06/20 12:27:08;;;;;;;;;;;20.50;99.90;;;;;;5076547;28;19924;-80
2022/06/20 12:29:36;;;;;;;;;;;20.70;99.90;;;;;;5075505;28;20011;-81
2022/06/20 12:32:05;;;;;;;;;;;20.70;99.90;;;;;;5077549;28;19924;-80
2022/06/20 12:34:37;;;;;;;;;;;19.80;99.90;;;;;;5077248;28;20360;-80
2022/06/20 12:37:03;;;;;;;;;;;20.00;99.90;;;;;;5076617;28;19945;-86
2022/06/20 12:39:37;;;;;;;;;;;19.60;99.90;;;;;;5094143;28;20026;-81
2022/06/20 12:42:12;;;;;;;;;;;20.00;99.90;;;;;;5094317;28;19924;-85
2022/06/20 12:44:47;;;;;;;;;;;20.10;99.90;;;;;;5077044;28;20295;-80
2022/06/20 12:47:25;;;;;;;;;;;20.40;99.90;;;;;;5093133;28;19931;-81
2022/06/20 12:50:09;;;;;;;;;;;20.40;99.90;;;;;;5094203;28;19924;-79
2022/06/20 12:52:53;;;;;;;;;;;20.00;99.90;;;;;;5077317;28;19990;-82
2022/06/20 12:55:25;;;;;;;;;;;20.40;99.90;;;;;;5093660;28;19928;-87
2022/06/20 12:58:09;;;;;;;;;;;20.40;99.90;;;;;;5076620;28;19954;-81
2022/06/20 13:00:41;;;;;;;;;;;20.70;99.90;;;;;;5093507;28;20422;-86
2022/06/20 13:03:12;;;;;;;;;;;20.60;99.90;;;;;;5076932;28;19931;-85
2022/06/20 13:05:47;;;;;;;;;;;20.20;99.90;;;;;;5093943;28;19931;-78
2022/06/20 13:08:16;;;;;;;;;;;20.20;99.90;;;;;;5072253;28;20028;-88
2022/06/20 13:10:41;;;;;;;;;;;20.40;99.90;;;;;;5108071;28;19928;-83
2022/06/20 13:13:10;;;;;;;;;;;21.00;99.90;;;;;;5104607;28;20011;-84
2022/06/20 13:15:35;;;;;;;;;;;21.30;99.90;;;;;;5073853;28;19975;-84
2022/06/20 13:18:37;;;;;;;;;;;21.30;99.90;;;;;;5073174;28;19928;-86
2022/06/20 13:21:21;;;;;;;;;;;21.70;99.90;;;;;;5025919;28;19941;-93
2022/06/20 13:24:02;;;;;;;;;;;21.50;99.90;;;;;;5069709;28;20018;-88
2022/06/20 13:26:28;;;;;;;;;;;21.70;99.90;;;;;;5052573;28;20733;-86
2022/06/20 13:29:01;;;;;;;;;;;21.00;99.90;;;;;;5057482;28;20003;-81
2022/06/20 13:31:31;;;;;;;;;;;20.20;99.90;;;;;;5107464;28;19928;-78
2022/06/20 13:34:06;;;;;;;;;;;19.70;99.90;;;;;;5061197;28;20393;-80
2022/06/20 13:36:44;;;;;;;;;;;19.90;99.90;;;;;;5090892;28;19950;-80
2022/06/20 13:39:28;;;;;;;;;;;19.40;99.90;;;;;;5088458;28;19934;-86
2022/06/20 13:42:00;;;;;;;;;;;19.80;99.90;;;;;;5102972;28;19932;-82
2022/06/20 13:44:28;;;;;;;;;;;20.40;99.90;;;;;;5105761;28;19925;-81
2022/06/20 13:46:57;;;;;;;;;;;21.10;99.90;;;;;;5053645;28;19936;-82
2022/06/20 13:49:36;;;;;;;;;;;21.60;99.90;;;;;;5053981;28;19978;-81
2022/06/20 13:52:10;;;;;;;;;;;21.70;99.90;;;;;;5053399;28;19972;-81
2022/06/20 13:54:38;;;;;;;;;;;22.10;99.90;;;;;;5052656;28;20327;-80
2022/06/20 13:57:04;;;;;;;;;;;22.70;99.90;;;;;;5103052;28;19932;-79
2022/06/20 13:59:38;;;;;;;;;;;22.70;99.30;;;;;;5072990;28;19928;-79
2022/06/20 14:02:22;;;;;;;;;;;21.90;99.70;;;;;;5071159;28;19928;-80
2022/06/20 14:04:49;;;;;;;;;;;21.60;99.90;;;;;;5053269;28;20019;-80
2022/06/20 14:07:20;;;;;;;;;;;20.80;99.90;;;;;;5069364;28;20062;-80
2022/06/20 14:09:50;;;;;;;;;;;20.20;99.90;;;;;;5087780;28;19928;-78
2022/06/20 14:12:42;;;;;;;;;;;19.60;99.90;;;;;;5086703;28;20388;-82
2022/06/20 14:15:16;;;;;;;;;;;19.40;99.90;;;;;;5050950;28;19935;-82
2022/06/20 14:17:50;;;;;;;;;;;19.50;99.90;;;;;;5069107;28;20285;-85
2022/06/20 14:20:21;;;;;;;;;;;20.30;99.90;;;;;;5047818;28;20395;-85
2022/06/20 14:22:48;;;;;;;;;;;20.30;99.90;;;;;;5055294;28;19924;-83
2022/06/20 14:25:32;;;;;;;;;;;20.30;99.90;;;;;;5072873;28;19928;-83
2022/06/20 14:27:59;;;;;;;;;;;20.60;99.90;;;;;;5051387;28;19951;-82
2022/06/20 14:30:33;;;;;;;;;;;21.10;99.90;;;;;;5088196;28;19928;-83
2022/06/20 14:32:59;;;;;;;;;;;21.00;99.90;;;;;;5057197;28;20422;-86
2022/06/20 14:35:27;;;;;;;;;;;20.60;99.90;;;;;;5089656;28;19943;-83
2022/06/20 14:37:58;;;;;;;;;;;20.40;99.90;;;;;;5073136;28;19972;-86
2022/06/20 14:40:30;;;;;;;;;;;21.40;99.90;;;;;;5089615;28;20282;-83
2022/06/20 14:43:01;;;;;;;;;;;21.90;99.90;;;;;;5071340;28;20299;-82
2022/06/20 14:45:30;;;;;;;;;;;23.00;99.90;;;;;;5072856;28;19927;-80
2022/06/20 14:47:59;;;;;;;;;;;23.40;98.60;;;;;;5089583;28;19928;-81
2022/06/20 14:50:30;;;;;;;;;;;23.50;97.70;;;;;;5065673;28;19931;-80
2022/06/20 14:53:02;;;;;;;;;;;23.50;97.60;;;;;;5048338;28;20398;-82
2022/06/20 14:55:49;;;;;;;;;;;23.90;96.80;;;;;;5066209;28;19935;-83
2022/06/20 14:58:20;;;;;;;;;;;23.60;95.80;;;;;;5073148;28;19924;-82
2022/06/20 15:00:50;;;;;;;;;;;23.90;96.60;;;;;;5073381;28;19935;-85